Time;durP1;ratioP1;P1;durP2;ratioP2;P2;SDS_P1;SDS_P2;PMS_P1;PMS_P2;Temp;Humidity;BMP_temperature;BMP_pressure;BME280_temperature;BME280_humidity;BME280_pressure;Samples;Min_cycle;Max_cycle;Signal;HPM_P1;HPM_P2
2022/03/30 00:01:08;;;;;;;27.07;14.47;;;;;;;7.15;68.69;100712.13;4976501;28;20423;-82
2022/03/30 00:03:34;;;;;;;27.73;15.35;;;;;;;7.07;69.39;100709.56;4976224;28;20542;-83
2022/03/30 00:05:59;;;;;;;25.88;14.27;;;;;;;7.07;68.95;100713.00;4975656;28;20376;-83
2022/03/30 00:08:24;;;;;;;29.00;14.75;;;;;;;7.02;69.53;100716.44;4976517;28;20058;-83
2022/03/30 00:10:50;;;;;;;30.35;15.52;;;;;;;6.98;69.55;100717.34;4975916;28;20113;-83
2022/03/30 00:13:15;;;;;;;28.47;14.87;;;;;;;6.94;69.82;100719.03;4976166;28;20070;-83
2022/03/30 00:15:43;;;;;;;31.48;15.93;;;;;;;6.85;69.91;100722.53;4976148;28;20018;-83
2022/03/30 00:18:09;;;;;;;29.92;16.40;;;;;;;6.85;70.14;100726.81;4976118;28;20034;-83
2022/03/30 00:20:34;;;;;;;27.30;15.03;;;;;;;6.84;69.77;100715.63;4974892;28;20026;-82
2022/03/30 00:22:59;;;;;;;28.63;13.80;;;;;;;6.83;70.27;100721.66;4975943;28;20516;-83
2022/03/30 00:25:25;;;;;;;27.70;15.33;;;;;;;6.82;70.15;100717.34;4975972;28;20033;-83
2022/03/30 00:27:50;;;;;;;28.70;15.33;;;;;;;6.76;69.95;100709.59;4975588;28;20372;-83
2022/03/30 00:30:18;;;;;;;30.48;15.85;;;;;;;6.73;70.37;100704.47;4975234;28;20430;-82
2022/03/30 00:32:44;;;;;;;31.67;16.02;;;;;;;6.66;70.60;100703.63;4975839;28;20034;-83
2022/03/30 00:35:10;;;;;;;28.93;15.20;;;;;;;6.70;69.81;100704.47;4975001;28;20062;-82
2022/03/30 00:37:35;;;;;;;29.03;15.80;;;;;;;6.65;70.64;100700.16;4975578;28;20062;-82
2022/03/30 00:40:03;;;;;;;26.88;15.90;;;;;;;6.64;70.47;100695.03;4975823;28;20054;-82
2022/03/30 00:42:29;;;;;;;29.55;14.98;;;;;;;6.59;70.49;100697.63;4974768;28;20026;-83
2022/03/30 00:44:54;;;;;;;32.60;16.63;;;;;;;6.48;70.83;100695.03;4975362;28;20037;-83
2022/03/30 00:47:26;;;;;;;29.15;15.63;;;;;;;6.50;70.96;100697.63;4975098;28;20093;-83
2022/03/30 00:49:53;;;;;;;25.27;13.43;;;;;;;6.56;70.44;100701.91;4975384;28;20100;-82
2022/03/30 00:52:21;;;;;;;26.30;14.38;;;;;;;6.54;70.21;100701.91;4975414;28;20031;-83
2022/03/30 00:54:49;;;;;;;25.08;13.07;;;;;;;6.52;70.90;100702.78;4989388;28;20027;-82
2022/03/30 00:57:18;;;;;;;26.85;13.90;;;;;;;6.49;70.74;100701.91;4975623;28;20483;-83
2022/03/30 00:59:43;;;;;;;28.08;14.43;;;;;;;6.48;70.59;100700.19;4975313;28;20046;-83
2022/03/30 01:02:09;;;;;;;28.43;13.80;;;;;;;6.48;70.74;100695.03;4974546;28;20027;-82
2022/03/30 01:04:35;;;;;;;24.00;12.60;;;;;;;6.48;70.06;100697.59;4974974;28;20318;-83
2022/03/30 01:07:01;;;;;;;26.60;13.67;;;;;;;6.38;70.98;100695.06;4974972;28;20026;-83
2022/03/30 01:09:28;;;;;;;26.00;13.03;;;;;;;6.39;70.17;100694.19;4974159;28;20494;-82
2022/03/30 01:11:55;;;;;;;26.90;14.40;;;;;;;6.29;71.04;100685.59;4975197;28;20086;-83
2022/03/30 01:14:20;;;;;;;27.20;13.68;;;;;;;6.21;71.23;100680.44;4974520;28;20068;-83
2022/03/30 01:16:45;;;;;;;29.77;14.50;;;;;;;6.17;71.41;100684.75;4973883;28;20038;-82
2022/03/30 01:19:11;;;;;;;27.85;14.95;;;;;;;6.08;71.24;100679.59;4975009;28;20030;-83
2022/03/30 01:21:39;;;;;;;29.67;14.63;;;;;;;6.06;71.27;100683.88;4974479;28;20093;-83
2022/03/30 01:24:05;;;;;;;26.52;13.75;;;;;;;6.01;71.29;100672.72;4974486;28;20023;-83
2022/03/30 01:26:31;;;;;;;25.92;13.82;;;;;;;5.94;71.86;100673.53;4974639;28;20027;-83
2022/03/30 01:28:56;;;;;;;27.73;14.37;;;;;;;5.84;72.27;100668.38;4974795;28;20034;-83
2022/03/30 01:34:11;;;;;;;31.95;16.45;;;;;;;5.64;73.22;100673.47;4975062;28;20058;-83
2022/03/30 01:36:37;;;;;;;29.52;15.45;;;;;;;5.64;73.06;100663.16;4973880;28;20074;-83
2022/03/30 01:39:03;;;;;;;27.83;13.93;;;;;;;5.65;72.78;100674.34;4973938;28;20423;-82
2022/03/30 01:41:29;;;;;;;25.42;12.98;;;;;;;5.68;72.78;100672.63;4973530;28;20042;-83
2022/03/30 01:43:56;;;;;;;25.27;12.60;;;;;;;5.67;72.53;100665.75;4973618;28;20023;-83
2022/03/30 01:46:21;;;;;;;24.15;12.05;;;;;;;5.72;71.68;100669.22;4973772;28;20043;-83
2022/03/30 01:48:46;;;;;;;20.70;10.43;;;;;;;5.74;71.84;100674.34;4974682;28;20023;-82
2022/03/30 01:51:12;;;;;;;22.48;10.30;;;;;;;5.72;72.18;100671.78;4973672;28;20098;-82
2022/03/30 01:53:37;;;;;;;23.98;12.32;;;;;;;5.64;72.72;100664.91;4974053;28;20373;-82
2022/03/30 01:56:02;;;;;;;25.15;12.32;;;;;;;5.65;72.31;100669.19;4974375;28;20054;-82
2022/03/30 01:58:28;;;;;;;22.52;11.70;;;;;;;5.65;72.29;100657.16;4973556;28;20054;-82
2022/03/30 02:00:53;;;;;;;21.75;9.98;;;;;;;5.64;72.93;100658.03;4974446;28;20118;-83
2022/03/30 02:03:19;;;;;;;21.42;10.77;;;;;;;5.61;72.04;100652.88;4973955;28;20026;-82
2022/03/30 02:05:44;;;;;;;19.77;9.65;;;;;;;5.61;71.47;100650.31;4973571;28;20034;-82
2022/03/30 02:08:09;;;;;;;23.42;10.82;;;;;;;5.58;72.46;100640.00;4974350;28;20027;-82
2022/03/30 02:10:35;;;;;;;23.80;11.18;;;;;;;5.51;73.05;100640.84;4973597;28;20554;-82
2022/03/30 02:13:00;;;;;;;21.80;11.25;;;;;;;5.49;72.68;100648.56;4973213;28;20058;-82
2022/03/30 02:15:26;;;;;;;23.63;11.88;;;;;;;5.43;72.92;100642.53;4974030;28;20392;-82
2022/03/30 02:17:51;;;;;;;23.08;11.05;;;;;;;5.43;72.50;100650.25;4974332;28;20109;-82
2022/03/30 02:20:17;;;;;;;20.52;10.00;;;;;;;5.45;72.31;100644.28;4972754;28;20023;-83
2022/03/30 02:22:42;;;;;;;21.75;10.15;;;;;;;5.41;72.86;100630.50;4973976;28;20034;-82
2022/03/30 02:25:09;;;;;;;21.60;9.70;;;;;;;5.46;72.08;100632.25;4973893;28;20463;-82
2022/03/30 02:27:35;;;;;;;23.25;10.35;;;;;;;5.42;72.02;100626.22;4972890;28;20015;-82
2022/03/30 02:30:00;;;;;;;19.15;9.40;;;;;;;5.44;72.10;100631.38;4974076;28;20067;-82
2022/03/30 02:32:25;;;;;;;17.85;8.00;;;;;;;5.42;72.45;100618.50;4973884;28;20404;-82
2022/03/30 02:34:51;;;;;;;24.40;11.80;;;;;;;5.34;73.04;100610.78;4973358;28;20113;-83
2022/03/30 02:37:17;;;;;;;26.73;13.57;;;;;;;5.23;73.73;100605.59;4973572;28;20027;-82
2022/03/30 02:39:42;;;;;;;24.00;11.67;;;;;;;5.23;73.63;100603.03;4973954;28;20026;-83
2022/03/30 02:42:08;;;;;;;28.42;14.23;;;;;;;5.16;74.13;100603.00;4972996;28;20619;-82
2022/03/30 02:44:34;;;;;;;24.20;11.98;;;;;;;5.18;73.58;100598.72;4973541;28;20019;-82
2022/03/30 02:47:00;;;;;;;23.77;11.20;;;;;;;5.19;73.20;100601.31;4954400;28;20093;-82
2022/03/30 02:49:26;;;;;;;22.45;10.73;;;;;;;5.19;73.61;100600.41;4953562;28;20464;-82
2022/03/30 02:51:52;;;;;;;20.20;9.43;;;;;;;5.19;72.56;100597.84;4970604;28;20065;-82
2022/03/30 02:54:17;;;;;;;21.38;9.20;;;;;;;5.24;73.40;100597.00;4976181;28;20109;-82
2022/03/30 02:56:42;;;;;;;18.80;8.32;;;;;;;5.25;72.84;100590.16;4977236;28;20049;-82
2022/03/30 02:59:07;;;;;;;17.60;7.72;;;;;;;5.27;72.85;100588.47;4977644;28;20117;-82
2022/03/30 03:01:33;;;;;;;15.73;7.15;;;;;;;5.31;73.72;100591.91;4976597;28;20037;-82
2022/03/30 03:03:58;;;;;;;18.98;7.65;;;;;;;5.28;72.50;100587.59;4977418;28;20023;-82
2022/03/30 03:06:23;;;;;;;19.00;7.90;;;;;;;5.28;72.20;100586.72;4977197;28;20023;-82
2022/03/30 03:08:49;;;;;;;15.65;7.13;;;;;;;5.30;72.60;100588.44;4976765;28;20452;-82
2022/03/30 03:11:15;;;;;;;19.90;8.43;;;;;;;5.28;72.67;100590.19;4977309;28;20054;-82
2022/03/30 03:13:40;;;;;;;19.67;8.93;;;;;;;5.20;73.34;100589.28;4977382;28;20034;-82
2022/03/30 03:16:05;;;;;;;21.67;8.95;;;;;;;5.21;73.33;100588.44;4976678;28;20043;-82
2022/03/30 03:18:31;;;;;;;24.25;11.18;;;;;;;5.08;73.65;100588.38;4977005;28;20372;-82
2022/03/30 03:20:56;;;;;;;25.77;12.40;;;;;;;4.95;74.90;100587.50;4976891;28;20125;-82
2022/03/30 03:23:22;;;;;;;26.92;14.35;;;;;;;4.90;74.40;100583.19;4976061;28;20031;-82
2022/03/30 03:25:47;;;;;;;26.65;13.45;;;;;;;4.84;74.56;100581.44;4976945;28;20027;-82
2022/03/30 03:28:13;;;;;;;24.10;11.85;;;;;;;4.83;74.55;100578.88;4976853;28;20081;-82
2022/03/30 03:30:40;;;;;;;25.60;12.77;;;;;;;4.75;75.05;100571.97;4976112;28;20031;-82
2022/03/30 03:33:06;;;;;;;26.08;12.45;;;;;;;4.77;74.62;100575.41;4976541;28;20298;-82
2022/03/30 03:35:33;;;;;;;23.20;10.75;;;;;;;4.76;75.28;100568.56;4976633;28;20023;-82
2022/03/30 03:37:59;;;;;;;23.20;11.13;;;;;;;4.75;74.91;100566.84;4976273;28;20034;-82
2022/03/30 03:40:27;;;;;;;27.13;12.07;;;;;;;4.69;74.56;100561.69;4976430;28;20053;-82
2022/03/30 03:42:52;;;;;;;25.20;12.70;;;;;;;4.66;74.71;100553.94;4976994;28;20027;-82
2022/03/30 03:45:18;;;;;;;30.88;15.07;;;;;;;4.52;76.44;100568.44;4975597;28;20135;-82
2022/03/30 03:47:43;;;;;;;27.70;14.57;;;;;;;4.46;76.60;100558.97;4976813;28;20044;-82
2022/03/30 03:50:10;;;;;;;32.63;15.90;;;;;;;4.36;76.98;100562.34;4976198;28;20102;-83
2022/03/30 03:52:36;;;;;;;30.30;14.50;;;;;;;4.29;77.48;100559.75;4975370;28;20034;-82
2022/03/30 03:55:03;;;;;;;30.88;15.40;;;;;;;4.27;77.79;100561.47;4976951;28;20069;-82
2022/03/30 03:57:32;;;;;;;25.15;13.20;;;;;;;4.29;77.09;100562.34;4975652;28;20053;-81
2022/03/30 03:59:57;;;;;;;30.73;14.98;;;;;;;4.22;77.68;100558.03;4976593;28;20035;-82
2022/03/30 04:02:22;;;;;;;28.50;14.82;;;;;;;4.21;77.45;100547.72;4976173;28;20026;-82
2022/03/30 04:04:51;;;;;;;27.90;14.15;;;;;;;4.25;76.58;100547.75;4974695;28;20027;-82
2022/03/30 04:07:16;;;;;;;27.63;13.85;;;;;;;4.21;77.09;100555.41;4975990;28;20074;-82
2022/03/30 04:09:41;;;;;;;29.52;14.27;;;;;;;4.21;77.28;100555.41;4976149;28;20109;-82
2022/03/30 04:12:07;;;;;;;26.92;13.20;;;;;;;4.20;77.70;100556.28;4975321;28;20033;-82
2022/03/30 04:14:33;;;;;;;28.37;13.60;;;;;;;4.22;76.61;100558.03;4975817;28;20042;-82
2022/03/30 04:16:58;;;;;;;24.52;11.25;;;;;;;4.25;76.25;100550.31;4976231;28;20294;-82
2022/03/30 04:19:24;;;;;;;21.90;9.68;;;;;;;4.29;76.16;100546.03;4975435;28;20599;-82
2022/03/30 04:21:49;;;;;;;23.15;10.50;;;;;;;4.27;76.32;100542.63;4975639;28;20030;-82
2022/03/30 04:24:14;;;;;;;20.77;8.90;;;;;;;4.30;75.21;100548.63;4975878;28;20039;-82
2022/03/30 04:26:40;;;;;;;18.73;7.93;;;;;;;4.34;75.26;100544.38;4975299;28;20030;-82
2022/03/30 04:29:05;;;;;;;19.38;8.88;;;;;;;4.33;75.04;100540.09;4976003;28;20390;-82
2022/03/30 04:31:31;;;;;;;25.42;11.38;;;;;;;4.26;76.38;100549.47;4975696;28;20491;-82
2022/03/30 04:33:56;;;;;;;22.45;9.93;;;;;;;4.22;76.29;100550.31;4975103;28;20047;-82
2022/03/30 04:36:22;;;;;;;24.45;11.23;;;;;;;4.19;75.75;100550.28;4975157;28;20034;-82
2022/03/30 04:38:47;;;;;;;21.48;9.65;;;;;;;4.19;76.24;100550.28;4975517;28;20502;-82
2022/03/30 04:41:13;;;;;;;21.25;9.60;;;;;;;4.14;75.84;100544.25;4974653;28;20067;-82
2022/03/30 04:43:39;;;;;;;21.52;9.43;;;;;;;4.12;76.31;100554.53;4975272;28;20027;-83
2022/03/30 04:46:05;;;;;;;22.90;10.93;;;;;;;4.06;77.21;100548.47;4975124;28;20043;-82
2022/03/30 04:48:31;;;;;;;20.05;8.65;;;;;;;4.06;76.50;100556.19;4974604;28;20034;-82
2022/03/30 04:50:56;;;;;;;20.15;8.88;;;;;;;4.05;75.15;100555.34;4975712;28;20376;-82
2022/03/30 04:53:21;;;;;;;20.00;8.30;;;;;;;4.05;76.45;100557.91;4975058;28;20479;-82
2022/03/30 04:55:47;;;;;;;19.75;8.52;;;;;;;3.98;76.30;100549.31;4974787;28;20038;-82
2022/03/30 04:58:12;;;;;;;19.48;8.35;;;;;;;3.96;76.31;100552.69;4975557;28;20027;-82
2022/03/30 05:00:38;;;;;;;21.23;8.82;;;;;;;3.90;76.81;100550.94;4975230;28;20431;-82
2022/03/30 05:03:03;;;;;;;24.20;11.38;;;;;;;3.76;78.71;100562.81;4974857;28;20038;-82
2022/03/30 05:05:29;;;;;;;24.23;11.60;;;;;;;3.73;77.17;100563.63;4975070;28;20039;-82
2022/03/30 05:08:13;;;;;;;23.98;10.80;;;;;;;3.66;77.87;100552.44;4974588;28;20029;-82
2022/03/30 05:10:38;;;;;;;22.48;10.73;;;;;;;3.64;77.20;100548.16;4974752;28;20539;-81
2022/03/30 05:13:05;;;;;;;22.48;10.15;;;;;;;3.68;76.82;100549.91;4975172;28;20211;-82
2022/03/30 05:15:31;;;;;;;21.73;9.30;;;;;;;3.66;76.61;100551.59;4973877;28;20027;-82
2022/03/30 05:17:57;;;;;;;23.38;11.07;;;;;;;3.60;77.63;100544.72;4974905;28;20046;-82
2022/03/30 05:20:24;;;;;;;22.15;10.27;;;;;;;3.57;77.09;100542.13;4974622;28;20026;-82
2022/03/30 05:22:49;;;;;;;25.48;11.30;;;;;;;3.54;78.98;100550.66;4974478;28;20050;-82
2022/03/30 05:25:21;;;;;;;27.70;13.15;;;;;;;3.45;79.53;100545.44;4974951;28;20101;-82
2022/03/30 05:27:46;;;;;;;31.33;14.80;;;;;;;3.26;80.89;100531.56;4975622;28;20431;-82
2022/03/30 05:30:13;;;;;;;29.35;14.73;;;;;;;3.23;80.39;100540.09;4974231;28;20027;-82
2022/03/30 05:32:38;;;;;;;28.03;13.57;;;;;;;3.23;79.56;100534.97;4974537;28;20099;-82
2022/03/30 05:35:06;;;;;;;23.88;11.57;;;;;;;3.25;78.29;100537.53;4974593;28;20827;-82
2022/03/30 05:37:32;;;;;;;21.92;9.93;;;;;;;3.31;78.05;100532.50;4974018;28;20039;-83
2022/03/30 05:39:58;;;;;;;22.25;10.38;;;;;;;3.32;78.74;100541.88;4974596;28;20034;-82
2022/03/30 05:42:23;;;;;;;24.52;11.02;;;;;;;3.32;79.84;100536.75;4974098;28;20034;-82
2022/03/30 05:44:50;;;;;;;25.63;12.27;;;;;;;3.28;79.99;100537.59;4973529;28;20058;-82
2022/03/30 05:47:16;;;;;;;24.00;11.23;;;;;;;3.24;79.67;100525.56;4974606;28;20143;-82
2022/03/30 05:49:41;;;;;;;22.88;10.27;;;;;;;3.32;79.77;100546.16;4974147;28;20497;-82
2022/03/30 05:52:07;;;;;;;23.27;11.15;;;;;;;3.32;79.67;100533.34;4973786;28;20356;-82
2022/03/30 05:54:33;;;;;;;25.30;12.20;;;;;;;3.29;79.42;100536.75;4974444;28;20495;-82
2022/03/30 05:57:01;;;;;;;24.20;11.25;;;;;;;3.29;79.61;100534.19;4974068;28;20374;-83
2022/03/30 05:59:34;;;;;;;24.38;10.73;;;;;;;3.32;79.34;100539.31;4974133;28;20031;-81
2022/03/30 06:02:37;;;;;;;21.67;9.90;;;;;;;3.34;79.35;100531.66;4974731;28;20030;-83
2022/03/30 06:05:02;;;;;;;21.48;9.65;;;;;;;3.38;79.81;100534.25;4974939;28;20502;-83
2022/03/30 06:07:40;;;;;;;22.00;10.18;;;;;;;3.35;78.90;100529.09;4974946;28;20023;-84
2022/03/30 06:10:06;;;;;;;20.52;8.80;;;;;;;3.45;78.08;100539.44;4974188;28;20073;-80
2022/03/30 06:12:31;;;;;;;19.88;8.02;;;;;;;3.49;78.33;100536.91;4973200;28;20039;-80
2022/03/30 06:14:56;;;;;;;19.98;8.57;;;;;;;3.63;77.82;100549.00;4974222;28;20027;-81
2022/03/30 06:17:31;;;;;;;17.17;7.30;;;;;;;3.60;78.06;100539.59;4973875;28;20046;-81
2022/03/30 06:19:59;;;;;;;17.40;6.90;;;;;;;3.74;78.14;100549.09;4973508;28;20038;-81
2022/03/30 06:22:29;;;;;;;18.38;7.70;;;;;;;3.81;76.76;100558.56;4973956;28;20019;-78
2022/03/30 06:24:55;;;;;;;16.67;6.80;;;;;;;3.88;77.30;100560.34;4973859;28;20033;-78
2022/03/30 06:27:20;;;;;;;16.77;7.15;;;;;;;3.95;77.64;100561.22;4972731;28;20093;-78
2022/03/30 06:29:46;;;;;;;18.13;7.38;;;;;;;3.97;78.09;100551.84;4973940;28;20047;-78
2022/03/30 06:32:11;;;;;;;18.25;7.40;;;;;;;3.98;78.14;100549.31;4973495;28;20533;-78
2022/03/30 06:34:37;;;;;;;18.55;7.45;;;;;;;4.04;78.03;100550.16;4973814;28;20034;-78
2022/03/30 06:37:05;;;;;;;26.50;11.80;;;;;;;4.01;77.83;100545.88;4973678;28;20066;-78
2022/03/30 06:39:30;;;;;;;25.60;12.15;;;;;;;4.01;78.12;100545.88;4972660;28;20031;-77
2022/03/30 06:41:56;;;;;;;24.58;11.60;;;;;;;4.07;78.25;100548.47;4973924;28;20435;-78
2022/03/30 06:44:24;;;;;;;26.33;12.80;;;;;;;4.10;78.58;100545.94;4973742;28;20046;-78
2022/03/30 06:46:53;;;;;;;31.10;15.23;;;;;;;4.01;78.62;100545.88;4973528;28;20406;-81
2022/03/30 06:49:18;;;;;;;31.98;15.70;;;;;;;3.99;78.19;100548.44;4973541;28;20090;-80
2022/03/30 06:51:52;;;;;;;31.10;15.20;;;;;;;4.01;77.96;100544.16;4973855;28;20031;-79
2022/03/30 06:54:17;;;;;;;34.42;16.27;;;;;;;4.07;78.24;100545.91;4973319;28;20035;-80
2022/03/30 06:56:42;;;;;;;30.05;15.63;;;;;;;4.22;78.02;100550.31;4974059;28;20111;-82
2022/03/30 06:59:08;;;;;;;32.35;15.23;;;;;;;4.89;77.39;100540.31;4974023;28;20043;-82
2022/03/30 07:01:34;;;;;;;31.67;16.30;;;;;;;6.57;71.09;100536.88;4973028;28;20078;-82
2022/03/30 07:03:59;;;;;;;29.98;15.48;;;;;;;7.88;68.23;100544.66;4973638;28;20031;-82
2022/03/30 07:06:24;;;;;;;30.80;14.80;;;;;;;9.06;61.42;100533.03;4973234;28;20055;-82
2022/03/30 07:11:34;;;;;;;29.23;13.65;;;;;;;10.39;58.16;100530.84;4973289;28;20082;-82
2022/03/30 07:14:02;;;;;;;28.83;13.53;;;;;;;10.67;56.90;100532.88;4973707;28;20066;-81
2022/03/30 07:16:27;;;;;;;26.13;12.75;;;;;;;10.61;55.18;100530.44;4972774;28;20117;-81
2022/03/30 07:18:53;;;;;;;29.33;13.87;;;;;;;10.07;56.46;100532.28;4973489;28;20115;-81
2022/03/30 07:21:19;;;;;;;27.35;13.07;;;;;;;9.20;59.12;100543.19;4973176;28;20764;-81
2022/03/30 07:23:44;;;;;;;26.30;13.03;;;;;;;8.35;61.36;100535.59;4973078;28;20043;-81
2022/03/30 07:26:10;;;;;;;27.17;13.73;;;;;;;7.33;63.73;100552.00;4973528;28;20035;-81
2022/03/30 07:28:37;;;;;;;27.30;14.27;;;;;;;6.72;66.41;100537.69;4972850;28;20031;-81
2022/03/30 07:31:03;;;;;;;28.02;13.48;;;;;;;6.56;67.65;100540.31;4973537;28;20031;-81
2022/03/30 07:33:29;;;;;;;26.43;13.60;;;;;;;6.40;68.03;100533.53;4973110;28;20026;-81
2022/03/30 07:35:55;;;;;;;28.05;13.32;;;;;;;6.27;68.79;100535.25;4972722;28;20102;-80
2022/03/30 07:38:21;;;;;;;29.65;13.80;;;;;;;6.14;69.07;100539.59;4973401;28;20062;-83
2022/03/30 07:40:48;;;;;;;28.33;13.88;;;;;;;6.03;70.19;100537.00;4975051;28;20039;-82
2022/03/30 07:43:14;;;;;;;;;;;;;;;6.08;69.63;100537.88;4976784;28;20030;-82
2022/03/30 07:45:40;;;;;;;28.67;13.45;;;;;;;6.17;70.16;100534.44;4976607;28;19918;-82
2022/03/30 07:48:06;;;;;;;27.27;13.68;;;;;;;6.28;70.07;100531.81;4976385;28;20561;-82
2022/03/30 07:50:32;;;;;;;29.58;14.45;;;;;;;6.36;69.66;100527.50;4975737;28;20114;-81
2022/03/30 07:52:58;;;;;;;30.88;14.95;;;;;;;6.42;69.97;100524.03;4976799;28;20026;-83
2022/03/30 07:55:24;;;;;;;30.30;15.10;;;;;;;6.54;69.37;100530.88;4985710;28;20035;-83
2022/03/30 07:57:50;;;;;;;30.13;15.43;;;;;;;6.44;68.20;100533.50;4979895;28;20027;-82
2022/03/30 08:00:17;;;;;;;30.35;14.15;;;;;;;6.51;68.62;100528.31;4975938;28;20526;-83
2022/03/30 08:02:46;;;;;;;;;;;;;;;6.57;68.71;100531.72;4973248;28;20078;-83
2022/03/30 08:05:13;;;;;;;27.63;13.43;;;;;;;6.73;69.88;100534.25;4976382;28;20405;-83
2022/03/30 08:07:49;;;;;;;28.02;13.27;;;;;;;6.89;68.65;100541.03;4982860;28;20359;-83
2022/03/30 08:10:15;;;;;;;26.63;12.93;;;;;;;6.94;68.65;100535.84;4979974;28;20035;-83
2022/03/30 08:12:41;;;;;;;23.45;11.75;;;;;;;7.05;69.28;100536.66;4974427;28;20030;-82
2022/03/30 08:15:11;;;;;;;26.55;13.13;;;;;;;7.12;68.77;100545.22;4974102;28;20062;-82
2022/03/30 08:17:37;;;;;;;28.05;13.73;;;;;;;7.14;67.53;100540.06;4973928;28;20052;-82
2022/03/30 08:20:04;;;;;;;27.00;13.30;;;;;;;7.11;67.88;100546.09;4975831;28;20031;-82
2022/03/30 08:22:29;;;;;;;;;;;;;;;7.14;67.67;100543.50;4976557;28;20035;-82
2022/03/30 08:25:11;;;;;;;25.10;12.83;;;;;;;7.16;66.77;100549.50;4974900;28;19917;-84
2022/03/30 08:27:37;;;;;;;27.95;13.75;;;;;;;7.08;66.20;100551.28;4975594;28;20034;-82
2022/03/30 08:30:05;;;;;;;27.53;13.40;;;;;;;7.00;66.65;100550.44;4975102;28;20033;-83
2022/03/30 08:32:31;;;;;;;27.08;13.77;;;;;;;7.04;66.55;100549.56;4975046;28;20041;-82
2022/03/30 08:34:59;;;;;;;28.30;14.47;;;;;;;7.15;66.56;100542.63;4975953;28;20442;-83
2022/03/30 08:37:25;;;;;;;29.45;14.23;;;;;;;7.24;66.77;100550.31;4975613;28;20031;-83
2022/03/30 08:39:51;;;;;;;26.87;14.03;;;;;;;7.31;66.41;100538.22;4975126;28;20022;-82
2022/03/30 08:42:19;;;;;;;27.20;13.80;;;;;;;7.26;66.40;100540.84;4975608;28;20238;-83
2022/03/30 08:44:46;;;;;;;25.38;12.82;;;;;;;7.41;66.80;100536.44;4975671;28;20081;-83
2022/03/30 08:47:12;;;;;;;24.30;11.98;;;;;;;7.55;66.93;100536.34;4975255;28;20034;-82
2022/03/30 08:49:38;;;;;;;24.87;11.57;;;;;;;7.70;66.17;100531.06;4974784;28;20031;-83
2022/03/30 08:52:06;;;;;;;26.60;13.75;;;;;;;7.76;65.68;100530.16;4975231;28;20024;-83
2022/03/30 08:54:32;;;;;;;26.85;13.95;;;;;;;7.83;65.74;100536.97;4974622;28;20033;-83
2022/03/30 08:56:58;;;;;;;26.05;13.13;;;;;;;7.87;65.52;100528.31;4975040;28;20027;-82
2022/03/30 08:59:24;;;;;;;27.45;13.35;;;;;;;7.70;65.50;100528.47;4975127;28;20041;-82
2022/03/30 09:01:52;;;;;;;26.80;13.17;;;;;;;7.74;65.96;100529.31;4974787;28;20023;-83
2022/03/30 09:04:19;;;;;;;24.83;12.55;;;;;;;7.90;66.34;100524.84;4974897;28;20030;-83
2022/03/30 09:06:59;;;;;;;23.80;11.82;;;;;;;8.10;66.13;100522.09;4974656;28;20062;-82
2022/03/30 09:09:36;;;;;;;27.08;13.43;;;;;;;8.15;64.65;100522.03;4975089;28;20033;-82
2022/03/30 09:12:10;;;;;;;26.13;13.43;;;;;;;8.21;64.79;100515.94;4975418;28;20027;-82
2022/03/30 09:14:39;;;;;;;24.00;12.27;;;;;;;8.29;65.08;100512.38;4974352;28;20475;-83
2022/03/30 09:19:38;;;;;;;23.58;12.32;;;;;;;8.78;63.80;100510.94;4981160;23;20062;-82
2022/03/30 09:22:26;;;;;;;23.63;12.70;;;;;;;8.85;62.54;100510.88;4974316;28;20031;-83
2022/03/30 09:24:54;;;;;;;24.35;12.63;;;;;;;8.91;61.68;100505.59;4975214;28;20027;-83
2022/03/30 09:27:23;;;;;;;23.63;11.32;;;;;;;9.01;63.49;100504.59;4974737;28;20057;-83
2022/03/30 09:29:49;;;;;;;24.45;12.48;;;;;;;9.15;61.14;100500.97;4973886;28;20031;-83
2022/03/30 09:32:15;;;;;;;25.23;12.83;;;;;;;9.21;61.63;100500.88;4974712;28;20031;-82
2022/03/30 09:34:49;;;;;;;27.07;13.93;;;;;;;9.05;60.89;100501.09;4974678;28;20482;-83
2022/03/30 09:37:15;;;;;;;25.58;13.73;;;;;;;9.04;61.70;100488.19;4974068;28;20118;-82
2022/03/30 09:39:41;;;;;;;27.93;13.93;;;;;;;8.94;61.30;100490.03;4974470;28;20170;-80
2022/03/30 09:42:08;;;;;;;23.83;11.97;;;;;;;9.08;62.57;100490.72;4974173;28;20030;-81
2022/03/30 09:44:54;;;;;;;24.80;12.82;;;;;;;9.27;61.21;100485.25;4974237;28;20038;-81
2022/03/30 09:47:34;;;;;;;24.83;13.10;;;;;;;9.45;60.75;100488.44;4974125;28;20031;-81
2022/03/30 09:50:00;;;;;;;26.00;13.95;;;;;;;9.27;60.42;100478.34;4974003;28;20066;-82
2022/03/30 09:52:34;;;;;;;26.20;13.77;;;;;;;9.25;60.27;100481.81;4974044;28;20070;-81
2022/03/30 09:55:02;;;;;;;25.23;13.23;;;;;;;9.31;60.90;100479.16;4974584;28;20030;-80
2022/03/30 09:57:50;;;;;;;23.77;12.45;;;;;;;9.52;61.29;100484.84;4973435;28;20042;-82
2022/03/30 10:00:19;;;;;;;25.55;13.02;;;;;;;9.79;59.74;100472.31;4974229;28;20494;-81
2022/03/30 10:02:47;;;;;;;24.80;12.82;;;;;;;9.89;58.87;100474.69;4973546;28;20454;-82
2022/03/30 10:05:14;;;;;;;27.08;13.55;;;;;;;9.65;58.10;100475.13;4973543;28;20031;-82
2022/03/30 10:07:40;;;;;;;25.42;12.38;;;;;;;9.87;58.93;100470.44;4974188;28;20047;-81
2022/03/30 10:10:08;;;;;;;23.90;12.63;;;;;;;9.99;58.56;100466.75;4974284;28;20061;-81
2022/03/30 10:12:34;;;;;;;26.92;13.88;;;;;;;9.96;58.10;100465.06;4973922;28;20030;-81
2022/03/30 10:15:04;;;;;;;23.87;12.50;;;;;;;9.97;57.16;100468.50;4974505;28;20117;-81
2022/03/30 10:17:29;;;;;;;23.73;12.35;;;;;;;9.89;57.47;100458.28;4972821;28;20082;-81
2022/03/30 10:19:58;;;;;;;25.67;13.30;;;;;;;9.88;58.11;100462.59;4973930;28;20027;-81
2022/03/30 10:23:04;;;;;;;24.67;12.68;;;;;;;10.04;57.07;100458.00;4973240;28;20045;-81
2022/03/30 10:25:50;;;;;;;23.95;11.93;;;;;;;10.43;59.63;100461.59;4972909;28;20035;-80
2022/03/30 10:28:25;;;;;;;22.58;11.82;;;;;;;10.82;56.75;100467.66;4963238;28;20197;-80
2022/03/30 10:30:56;;;;;;;25.05;12.27;;;;;;;10.90;53.92;100464.91;4972998;28;20035;-82
2022/03/30 10:33:36;;;;;;;24.42;12.40;;;;;;;10.77;54.15;100459.13;4967646;28;20386;-83
2022/03/30 10:36:20;;;;;;;24.55;12.45;;;;;;;10.75;55.53;100454.84;4954839;28;20031;-82
2022/03/30 10:39:15;;;;;;;24.50;12.52;;;;;;;10.75;54.82;100442.72;4975520;28;20497;-82
2022/03/30 10:41:50;;;;;;;22.45;11.52;;;;;;;10.84;54.82;100448.63;4970950;28;20122;-82
2022/03/30 10:44:35;;;;;;;24.73;12.80;;;;;;;10.84;53.60;100444.25;4972827;28;20431;-82
2022/03/30 10:47:10;;;;;;;25.45;12.50;;;;;;;10.86;53.88;100433.88;4973223;28;20030;-81
2022/03/30 10:49:44;;;;;;;22.70;11.88;;;;;;;10.89;53.93;100433.75;4973535;28;20031;-82
2022/03/30 10:52:34;;;;;;;23.67;12.70;;;;;;;10.85;54.90;100433.00;4973614;28;20019;-82
2022/03/30 10:55:12;;;;;;;21.83;10.60;;;;;;;11.15;55.09;100427.94;4972052;28;20061;-82
2022/03/30 10:57:46;;;;;;;24.20;12.90;;;;;;;11.15;53.02;100420.16;4972882;28;20026;-83
2022/03/30 11:00:20;;;;;;;24.73;12.55;;;;;;;11.21;54.35;100419.16;4973342;28;20109;-83
2022/03/30 11:02:46;;;;;;;22.13;11.75;;;;;;;11.32;54.98;100413.69;4973730;28;20413;-83
2022/03/30 11:05:13;;;;;;;22.77;11.70;;;;;;;11.55;53.79;100415.69;4973778;28;20035;-83
2022/03/30 11:07:39;;;;;;;24.15;12.45;;;;;;;11.59;53.62;100402.59;4972453;28;20019;-83
2022/03/30 11:10:17;;;;;;;23.50;12.45;;;;;;;11.64;53.47;100401.63;4973710;28;20046;-81
2022/03/30 11:13:12;;;;;;;23.73;12.60;;;;;;;11.56;51.65;100405.28;4973744;28;20038;-83
2022/03/30 11:16:07;;;;;;;24.15;12.45;;;;;;;11.49;52.77;100402.88;4976508;28;20027;-83
2022/03/30 11:18:33;;;;;;;23.13;11.88;;;;;;;11.59;53.64;100399.13;4977144;28;20501;-83
2022/03/30 11:21:18;;;;;;;24.10;12.52;;;;;;;11.50;52.13;100391.59;4976007;28;20136;-83
2022/03/30 11:24:00;;;;;;;21.35;10.63;;;;;;;11.65;52.14;100388.56;4977184;28;20129;-81
2022/03/30 11:26:49;;;;;;;22.63;12.20;;;;;;;11.50;51.05;100397.63;4976838;28;20106;-82
2022/03/30 11:29:52;;;;;;;22.83;11.90;;;;;;;11.52;52.21;100385.44;4976179;28;20083;-81
2022/03/30 11:32:23;;;;;;;21.13;10.65;;;;;;;11.75;51.04;100376.19;4976789;28;20101;-81